createdAt,value
2022-12-14T00:01:30.826Z,33.78
2022-12-14T00:03:58.613Z,33.65
2022-12-14T00:06:27.268Z,33.55
2022-12-14T00:08:57.462Z,34.19
2022-12-14T00:11:25.240Z,34.04
2022-12-14T00:13:53.328Z,34.49
2022-12-14T00:16:21.099Z,34.21
2022-12-14T00:18:51.022Z,33.78
2022-12-14T00:21:18.678Z,33.71
2022-12-14T00:23:46.563Z,33.73
2022-12-14T00:26:16.651Z,33.99
2022-12-14T00:28:44.668Z,34.07
2022-12-14T00:31:12.482Z,32.88
2022-12-14T00:33:40.267Z,33.61
2022-12-14T00:36:09.357Z,32.93
2022-12-14T00:38:37.373Z,32.57
2022-12-14T00:41:05.148Z,32.72
2022-12-14T00:43:34.233Z,32.66
2022-12-14T00:46:01.993Z,32.40
2022-12-14T00:48:31.599Z,32.45
2022-12-14T00:50:59.647Z,32.51
2022-12-14T00:53:27.569Z,31.89
2022-12-14T00:55:55.489Z,32.06
2022-12-14T00:58:24.971Z,32.07
2022-12-14T01:01:01.197Z,32.13
2022-12-14T01:03:29.555Z,32.44
2022-12-14T01:05:57.826Z,32.06
2022-12-14T01:08:25.858Z,32.40
2022-12-14T01:10:53.871Z,32.21
2022-12-14T01:13:21.800Z,32.27
2022-12-14T01:15:49.686Z,32.41
2022-12-14T01:18:19.407Z,32.67
2022-12-14T01:20:47.327Z,32.57
2022-12-14T01:23:15.888Z,32.35
2022-12-14T01:25:43.692Z,32.64
2022-12-14T01:28:11.523Z,31.96
2022-12-14T01:30:40.513Z,32.29
2022-12-14T01:33:08.534Z,32.25
2022-12-14T01:35:37.740Z,32.56
2022-12-14T01:38:05.575Z,32.40
2022-12-14T01:40:33.497Z,32.27
2022-12-14T01:43:01.605Z,32.51
2022-12-14T01:45:30.091Z,32.74
2022-12-14T01:47:58.710Z,32.33
2022-12-14T01:50:29.478Z,32.95
2022-12-14T01:52:59.817Z,33.08
2022-12-14T01:55:28.683Z,33.07
2022-12-14T01:57:59.279Z,33.27
2022-12-14T02:00:27.132Z,32.74
2022-12-14T02:02:57.695Z,33.21
2022-12-14T02:05:25.755Z,33.12
2022-12-14T02:07:54.383Z,33.09
2022-12-14T02:10:23.924Z,33.19
2022-12-14T02:12:53.843Z,33.25
2022-12-14T02:15:21.876Z,33.73
2022-12-14T02:17:49.734Z,33.41
2022-12-14T02:20:17.727Z,33.86
2022-12-14T02:23:28.328Z,33.77
2022-12-14T02:26:14.780Z,33.35
2022-12-14T02:29:16.205Z,34.16
2022-12-14T02:31:48.935Z,33.69
2022-12-14T02:34:19.625Z,34.00
2022-12-14T02:36:51.862Z,34.67
2022-12-14T02:39:23.344Z,34.42
2022-12-14T02:42:01.426Z,34.58
2022-12-14T02:44:39.984Z,34.66
2022-12-14T02:47:10.961Z,34.47
2022-12-14T02:49:48.971Z,34.74
2022-12-14T02:52:21.368Z,34.86
2022-12-14T02:54:51.341Z,34.82
2022-12-14T02:57:21.672Z,34.75
2022-12-14T02:59:50.036Z,34.63
2022-12-14T03:02:19.545Z,34.96
2022-12-14T03:04:48.710Z,35.43
2022-12-14T03:07:31.324Z,35.12
2022-12-14T03:10:00.171Z,35.26
2022-12-14T03:12:27.897Z,34.96
2022-12-14T03:14:55.715Z,34.59
2022-12-14T03:17:25.809Z,35.12
2022-12-14T03:19:54.708Z,34.37
2022-12-14T03:22:24.214Z,34.87
2022-12-14T03:24:56.339Z,34.53
2022-12-14T03:27:25.517Z,34.43
2022-12-14T03:29:55.301Z,34.47
2022-12-14T03:32:25.450Z,34.57
2022-12-14T03:34:55.948Z,34.47
2022-12-14T03:37:25.764Z,34.66
2022-12-14T03:39:53.614Z,34.93
2022-12-14T03:42:22.693Z,34.67
2022-12-14T03:44:53.535Z,34.61
2022-12-14T03:47:32.589Z,34.89
2022-12-14T03:50:01.373Z,34.77
2022-12-14T03:52:32.261Z,35.03
2022-12-14T03:55:04.584Z,35.05
2022-12-14T03:57:42.211Z,34.99
2022-12-14T04:00:11.433Z,34.63
2022-12-14T04:02:42.616Z,34.40
2022-12-14T04:05:12.415Z,35.03
2022-12-14T04:07:42.638Z,34.53
2022-12-14T04:10:26.917Z,34.39
2022-12-14T04:13:13.316Z,35.16
2022-12-14T04:15:58.382Z,35.18
2022-12-14T04:18:48.537Z,35.09
2022-12-14T04:21:17.605Z,35.14
2022-12-14T04:24:04.937Z,35.41
2022-12-14T04:26:34.066Z,35.75
2022-12-14T04:29:21.045Z,35.39
2022-12-14T04:31:50.363Z,35.55
2022-12-14T04:34:20.108Z,35.74
2022-12-14T04:36:50.082Z,35.78
2022-12-14T04:39:19.748Z,35.59
2022-12-14T04:41:50.137Z,36.21
2022-12-14T04:44:20.848Z,36.04
2022-12-14T04:46:48.842Z,36.36
2022-12-14T04:49:21.055Z,36.28
2022-12-14T04:51:50.897Z,36.18
2022-12-14T04:54:20.879Z,36.46
2022-12-14T04:56:51.992Z,36.52
2022-12-14T04:59:19.784Z,36.60
2022-12-14T05:01:50.535Z,36.46
2022-12-14T05:04:25.517Z,36.56
2022-12-14T05:06:59.231Z,36.52
2022-12-14T05:09:28.621Z,36.66
2022-12-14T05:12:01.351Z,36.39
2022-12-14T05:14:33.018Z,37.19
2022-12-14T05:17:06.496Z,36.66
2022-12-14T05:19:37.828Z,36.87
2022-12-14T05:22:07.517Z,37.15
2022-12-14T05:24:35.429Z,37.19
2022-12-14T05:27:03.279Z,37.31
2022-12-14T05:29:31.303Z,36.76
2022-12-14T05:31:59.211Z,37.10
2022-12-14T05:34:26.962Z,37.25
2022-12-14T05:36:56.277Z,37.26
2022-12-14T05:39:24.025Z,36.92
2022-12-14T05:41:53.302Z,37.64
2022-12-14T05:44:21.205Z,37.48
2022-12-14T05:46:49.333Z,37.42
2022-12-14T05:49:17.366Z,37.32
2022-12-14T05:51:45.245Z,37.36
2022-12-14T05:54:14.888Z,37.33
2022-12-14T05:56:42.660Z,37.20
2022-12-14T05:59:15.651Z,37.50
2022-12-14T06:01:43.744Z,36.12
2022-12-14T06:04:12.344Z,36.49
2022-12-14T06:06:40.121Z,36.25
2022-12-14T06:09:08.195Z,36.56
2022-12-14T06:11:39.676Z,36.03
2022-12-14T06:14:08.027Z,35.92
2022-12-14T06:16:36.080Z,35.75
2022-12-14T06:19:05.473Z,36.24
2022-12-14T06:21:35.452Z,35.97
2022-12-14T06:24:03.447Z,36.22
2022-12-14T06:26:32.032Z,36.65
2022-12-14T06:29:01.781Z,35.98
2022-12-14T06:31:30.697Z,36.04
2022-12-14T06:33:59.248Z,35.78
2022-12-14T06:36:27.922Z,35.75
2022-12-14T06:38:56.109Z,35.75
2022-12-14T06:41:24.201Z,35.92
2022-12-14T06:43:53.811Z,35.63
2022-12-14T06:46:23.690Z,35.67
2022-12-14T06:48:51.795Z,35.95
2022-12-14T06:51:19.876Z,35.79
2022-12-14T06:53:47.712Z,35.19
2022-12-14T06:56:17.353Z,35.23
2022-12-14T06:58:45.292Z,35.54
2022-12-14T07:01:14.344Z,35.90
2022-12-14T07:03:44.125Z,35.75
2022-12-14T07:06:12.950Z,35.53
2022-12-14T07:08:40.896Z,35.10
2022-12-14T07:11:09.958Z,36.12
2022-12-14T07:13:37.885Z,35.69
2022-12-14T07:16:06.201Z,35.51
2022-12-14T07:18:34.350Z,35.94
2022-12-14T07:21:04.291Z,35.73
2022-12-14T07:23:33.600Z,35.43
2022-12-14T07:26:04.809Z,35.77
2022-12-14T07:28:32.688Z,36.05
2022-12-14T07:31:00.844Z,36.17
2022-12-14T07:33:29.421Z,35.73
2022-12-14T07:36:04.602Z,36.17
2022-12-14T07:38:32.472Z,35.74
2022-12-14T07:41:04.778Z,36.09
2022-12-14T07:43:32.479Z,35.72
2022-12-14T07:46:01.826Z,36.18
2022-12-14T07:48:29.716Z,36.25
2022-12-14T07:51:04.577Z,36.38
2022-12-14T07:53:32.477Z,35.82
2022-12-14T07:56:03.537Z,35.74
2022-12-14T07:58:34.492Z,36.31
2022-12-14T08:01:12.608Z,35.21
2022-12-14T08:03:41.019Z,36.22
2022-12-14T08:06:10.534Z,36.20
2022-12-14T08:08:38.632Z,35.57
2022-12-14T08:11:07.103Z,35.79
2022-12-14T08:13:35.148Z,35.74
2022-12-14T08:16:04.169Z,35.60
2022-12-14T08:18:33.356Z,36.26
2022-12-14T08:21:01.164Z,35.94
2022-12-14T08:23:30.949Z,36.25
2022-12-14T08:25:59.976Z,36.20
2022-12-14T08:28:28.119Z,36.32
2022-12-14T08:30:55.999Z,35.85
2022-12-14T08:33:23.887Z,35.82
2022-12-14T08:35:51.861Z,35.83
2022-12-14T08:38:19.717Z,36.31
2022-12-14T08:40:49.076Z,36.34
2022-12-14T08:43:20.329Z,36.38
2022-12-14T08:45:51.324Z,36.11
2022-12-14T08:48:19.232Z,36.62
2022-12-14T08:50:49.825Z,35.77
2022-12-14T08:53:18.775Z,35.91
2022-12-14T08:55:48.079Z,35.93
2022-12-14T08:58:16.184Z,36.28
2022-12-14T09:00:44.249Z,35.99
2022-12-14T09:03:13.293Z,36.34
2022-12-14T09:05:41.105Z,36.72
2022-12-14T09:08:09.335Z,35.97
2022-12-14T09:10:37.865Z,36.77
2022-12-14T09:13:07.350Z,36.32
2022-12-14T09:15:36.039Z,36.26
2022-12-14T09:18:05.438Z,35.90
2022-12-14T09:20:33.325Z,36.47
2022-12-14T09:23:08.870Z,35.82
2022-12-14T09:25:37.230Z,36.12
2022-12-14T09:28:06.885Z,36.09
2022-12-14T09:30:35.242Z,35.94
2022-12-14T09:33:03.511Z,36.30
2022-12-14T09:35:32.181Z,35.49
2022-12-14T09:38:01.655Z,35.71
2022-12-14T09:40:29.882Z,36.10
2022-12-14T09:43:01.640Z,36.47
2022-12-14T09:45:34.963Z,35.80
2022-12-14T09:48:07.450Z,35.62
2022-12-14T09:50:35.414Z,35.92
2022-12-14T09:53:03.505Z,36.75
2022-12-14T09:55:34.317Z,36.26
2022-12-14T09:58:05.715Z,36.78
2022-12-14T10:00:36.883Z,36.74
2022-12-14T10:03:29.616Z,36.60
2022-12-14T10:06:10.752Z,36.81
2022-12-14T10:08:40.603Z,35.79
2022-12-14T10:11:11.446Z,36.72
2022-12-14T10:13:45.853Z,36.79
2022-12-14T10:16:22.380Z,36.75
2022-12-14T10:19:00.061Z,36.21
2022-12-14T10:21:29.254Z,36.24
2022-12-14T10:23:58.739Z,36.66
2022-12-14T10:26:28.599Z,36.51
2022-12-14T10:29:01.458Z,37.09
2022-12-14T10:31:34.478Z,36.57
2022-12-14T10:34:12.235Z,36.12
2022-12-14T10:36:43.464Z,36.57
2022-12-14T10:39:22.923Z,36.68
2022-12-14T10:41:53.835Z,35.95
2022-12-14T10:44:35.075Z,36.97
2022-12-14T10:47:06.994Z,37.30
2022-12-14T10:49:37.700Z,36.79
2022-12-14T10:52:06.961Z,37.63
2022-12-14T10:54:37.310Z,37.55
2022-12-14T10:57:05.300Z,37.51
2022-12-14T10:59:40.672Z,38.12
2022-12-14T11:02:16.957Z,37.22
2022-12-14T11:04:50.689Z,37.44
2022-12-14T11:07:19.885Z,38.48
2022-12-14T11:09:47.619Z,37.83
2022-12-14T11:12:21.361Z,38.32
2022-12-14T11:14:54.036Z,38.75
2022-12-14T11:17:37.153Z,39.65
2022-12-14T11:20:16.950Z,39.09
2022-12-14T11:22:45.829Z,39.19
2022-12-14T11:25:37.140Z,40.41
2022-12-14T11:28:07.275Z,39.54
2022-12-14T11:30:35.058Z,39.86
2022-12-14T11:33:04.328Z,40.82
2022-12-14T11:35:32.076Z,40.56
2022-12-14T11:38:00.155Z,40.63
2022-12-14T11:40:28.594Z,41.05
2022-12-14T11:43:02.480Z,40.99
2022-12-14T11:45:31.399Z,40.45
2022-12-14T11:48:21.115Z,40.28
2022-12-14T11:50:49.614Z,40.79
2022-12-14T11:53:18.256Z,41.40
2022-12-14T11:55:47.142Z,40.72
2022-12-14T11:58:23.511Z,40.83
2022-12-14T12:00:52.418Z,41.10
2022-12-14T12:03:33.634Z,40.85
2022-12-14T12:06:02.558Z,40.88
2022-12-14T12:08:31.851Z,40.77
2022-12-14T12:11:03.254Z,41.39
2022-12-14T12:13:32.249Z,40.57
2022-12-14T12:16:00.866Z,40.29
2022-12-14T12:18:33.629Z,41.61
2022-12-14T12:21:04.326Z,41.36
2022-12-14T12:23:33.841Z,41.45
2022-12-14T12:26:01.801Z,41.62
2022-12-14T12:28:32.270Z,40.86
2022-12-14T12:31:06.001Z,41.51
2022-12-14T12:33:41.778Z,41.01
2022-12-14T12:36:09.962Z,41.39
2022-12-14T12:38:42.439Z,41.37
2022-12-14T12:41:25.518Z,41.67
2022-12-14T12:43:54.678Z,41.38
2022-12-14T12:46:24.261Z,41.26
2022-12-14T12:48:54.752Z,40.93
2022-12-14T12:51:24.084Z,41.43
2022-12-14T12:53:53.701Z,41.39
2022-12-14T12:56:22.509Z,40.33
2022-12-14T12:58:52.846Z,40.52
2022-12-14T13:01:24.141Z,41.11
2022-12-14T13:03:54.693Z,40.38
2022-12-14T13:06:24.554Z,40.71
2022-12-14T13:08:55.968Z,40.22
2022-12-14T13:11:26.746Z,40.13
2022-12-14T13:13:57.677Z,41.18
2022-12-14T13:16:28.091Z,40.24
2022-12-14T13:19:19.111Z,40.61
2022-12-14T13:21:50.452Z,40.83
2022-12-14T13:24:19.165Z,41.50
2022-12-14T13:27:06.242Z,40.42
2022-12-14T13:32:10.882Z,41.13
2022-12-14T13:34:45.393Z,40.87
2022-12-14T13:37:42.541Z,41.35
2022-12-14T13:40:51.141Z,40.91
2022-12-14T13:43:27.524Z,40.98
2022-12-14T13:45:55.168Z,40.68
2022-12-14T13:48:24.375Z,41.20
2022-12-14T13:51:01.553Z,40.67
2022-12-14T13:53:30.841Z,40.91
2022-12-14T13:55:59.076Z,41.71
2022-12-14T13:58:33.839Z,40.92
2022-12-14T14:01:02.778Z,41.63
2022-12-14T14:03:48.052Z,40.79
2022-12-14T14:06:22.466Z,41.07
2022-12-14T14:08:51.358Z,41.72
2022-12-14T14:12:01.856Z,41.80
2022-12-14T14:14:37.744Z,41.20
2022-12-14T14:17:09.637Z,41.86
2022-12-14T14:19:40.444Z,41.56
2022-12-14T14:22:23.868Z,41.24
2022-12-14T14:24:55.518Z,41.38
2022-12-14T14:27:23.949Z,41.56
2022-12-14T14:29:51.791Z,41.69
2022-12-14T14:32:36.375Z,42.49
2022-12-14T14:35:04.468Z,42.40
2022-12-14T14:37:34.937Z,42.32
2022-12-14T14:40:50.981Z,41.35
2022-12-14T14:43:21.750Z,42.45
2022-12-14T14:45:50.261Z,42.16
2022-12-14T14:48:24.660Z,41.97
2022-12-14T14:51:03.602Z,42.28
2022-12-14T14:53:33.085Z,42.71
2022-12-14T14:56:06.227Z,42.01
2022-12-14T14:58:35.632Z,42.23
2022-12-14T15:01:20.461Z,42.11
2022-12-14T15:03:55.410Z,42.09
2022-12-14T15:06:34.035Z,42.83
2022-12-14T15:09:06.725Z,42.42
2022-12-14T15:11:42.261Z,42.47
2022-12-14T15:14:27.710Z,42.93
2022-12-14T15:16:55.478Z,42.52
2022-12-14T15:19:24.795Z,42.65
2022-12-14T15:21:54.008Z,42.37
2022-12-14T15:24:24.128Z,43.36
2022-12-14T15:26:51.811Z,43.36
2022-12-14T15:29:37.916Z,43.15
2022-12-14T15:32:05.986Z,43.32
2022-12-14T15:34:33.825Z,43.61
2022-12-14T15:37:01.679Z,43.41
2022-12-14T15:39:40.209Z,43.78
2022-12-14T15:42:13.138Z,43.47
2022-12-14T15:44:43.860Z,43.64
2022-12-14T15:47:25.472Z,44.09
2022-12-14T15:49:59.211Z,44.27
2022-12-14T15:52:30.257Z,43.97
2022-12-14T15:55:00.737Z,44.51
2022-12-14T15:57:28.434Z,44.12
2022-12-14T15:59:57.482Z,44.60
2022-12-14T16:02:26.560Z,44.77
2022-12-14T16:04:54.650Z,44.81
2022-12-14T16:07:23.695Z,44.59
2022-12-14T16:09:52.618Z,45.16
2022-12-14T16:12:22.855Z,45.10
2022-12-14T16:14:54.111Z,44.78
2022-12-14T16:17:23.134Z,45.53
2022-12-14T16:20:00.735Z,45.22
2022-12-14T16:22:29.863Z,45.25
2022-12-14T16:25:19.276Z,45.12
2022-12-14T16:27:49.837Z,45.46
2022-12-14T16:30:28.920Z,45.27
2022-12-14T16:33:07.699Z,45.78
2022-12-14T16:35:37.409Z,45.76
2022-12-14T16:38:09.529Z,45.93
2022-12-14T16:40:38.238Z,45.95
2022-12-14T16:43:08.168Z,45.75
2022-12-14T16:46:06.543Z,45.72
2022-12-14T16:48:35.887Z,45.82
2022-12-14T16:51:50.854Z,45.94
2022-12-14T16:54:26.438Z,46.32
2022-12-14T16:57:00.608Z,46.34
2022-12-14T16:59:32.213Z,46.41
2022-12-14T17:02:00.504Z,46.14
2022-12-14T17:04:34.059Z,46.77
2022-12-14T17:07:02.178Z,46.39
2022-12-14T17:09:30.885Z,46.60
2022-12-14T17:12:00.092Z,46.39
2022-12-14T17:14:30.019Z,46.36
2022-12-14T17:17:00.188Z,46.78
2022-12-14T17:19:30.317Z,46.89
2022-12-14T17:21:58.486Z,46.90
2022-12-14T17:24:26.526Z,46.98
2022-12-14T17:26:54.639Z,46.99
2022-12-14T17:29:23.541Z,47.18
2022-12-14T17:31:53.588Z,47.54
2022-12-14T17:34:21.520Z,47.00
2022-12-14T17:36:49.656Z,47.28
2022-12-14T17:39:17.616Z,47.36
2022-12-14T17:41:46.417Z,47.35
2022-12-14T17:44:15.402Z,47.59
2022-12-14T17:46:43.700Z,47.31
2022-12-14T17:49:14.321Z,47.16
2022-12-14T17:51:43.624Z,47.04
2022-12-14T17:54:15.436Z,47.50
2022-12-14T17:56:43.556Z,47.45
2022-12-14T17:59:11.701Z,47.38
2022-12-14T18:01:53.153Z,47.42
2022-12-14T18:04:22.677Z,47.23
2022-12-14T18:06:51.593Z,47.68
2022-12-14T18:09:19.610Z,47.54
2022-12-14T18:12:22.139Z,47.71
2022-12-14T18:14:44.104Z,47.84
2022-12-14T18:17:12.229Z,47.90
2022-12-14T18:19:41.574Z,47.88
2022-12-14T18:22:14.040Z,47.67
2022-12-14T18:24:42.233Z,47.99
2022-12-14T18:27:10.138Z,47.94
2022-12-14T18:29:38.889Z,48.35
2022-12-14T18:32:06.732Z,47.94
2022-12-14T18:34:34.518Z,48.86
2022-12-14T18:37:04.804Z,48.83
2022-12-14T18:39:32.555Z,49.10
2022-12-14T18:42:00.649Z,49.37
2022-12-14T18:44:28.539Z,49.17
2022-12-14T18:46:59.743Z,48.75
2022-12-14T18:49:33.524Z,48.96
2022-12-14T18:52:01.508Z,49.29
2022-12-14T18:54:30.996Z,49.06
2022-12-14T18:57:02.026Z,49.14
2022-12-14T18:59:29.915Z,49.39
2022-12-14T19:01:58.027Z,49.59
2022-12-14T19:04:25.976Z,49.00
2022-12-14T19:06:54.772Z,49.71
2022-12-14T19:09:23.331Z,49.49
2022-12-14T19:11:53.620Z,49.49
2022-12-14T19:14:21.580Z,49.26
2022-12-14T19:16:49.679Z,49.02
2022-12-14T19:19:22.427Z,49.35
2022-12-14T19:21:52.161Z,49.66
2022-12-14T19:24:20.128Z,49.79
2022-12-14T19:26:49.510Z,50.17
2022-12-14T19:29:19.038Z,50.26
2022-12-14T19:31:49.493Z,49.84
2022-12-14T19:34:21.107Z,49.34
2022-12-14T19:36:48.904Z,49.93
2022-12-14T19:39:16.736Z,49.63
2022-12-14T19:41:54.210Z,49.46
2022-12-14T19:46:53.104Z,49.88
2022-12-14T19:49:22.276Z,49.98
2022-12-14T19:51:50.261Z,50.37
2022-12-14T19:54:18.026Z,50.31
2022-12-14T19:56:45.950Z,50.26
2022-12-14T19:59:17.444Z,50.45
2022-12-14T20:01:48.113Z,49.98
2022-12-14T20:04:17.852Z,50.00
2022-12-14T20:06:45.658Z,50.39
2022-12-14T20:09:15.195Z,50.32
2022-12-14T20:11:43.283Z,50.36
2022-12-14T20:14:12.484Z,50.34
2022-12-14T20:16:40.364Z,50.78
2022-12-14T20:19:08.367Z,51.14
2022-12-14T20:21:53.765Z,50.34
2022-12-14T20:24:21.482Z,50.55
2022-12-14T20:26:50.601Z,50.80
2022-12-14T20:29:18.318Z,51.13
2022-12-14T20:31:46.192Z,51.00
2022-12-14T20:34:13.923Z,50.37
2022-12-14T20:36:41.888Z,50.81
2022-12-14T20:39:11.124Z,50.83
2022-12-14T20:41:39.051Z,50.92
2022-12-14T20:44:08.707Z,50.82
2022-12-14T20:46:37.619Z,51.27
2022-12-14T20:49:06.470Z,51.09
2022-12-14T20:51:35.202Z,50.84
2022-12-14T20:54:04.167Z,50.91
2022-12-14T20:56:34.043Z,51.20
2022-12-14T20:59:01.905Z,51.54
2022-12-14T21:01:29.911Z,51.14
2022-12-14T21:04:00.543Z,51.28
2022-12-14T21:06:28.315Z,51.29
2022-12-14T21:09:11.843Z,51.45
2022-12-14T21:11:59.911Z,51.66
2022-12-14T21:14:28.878Z,51.02
2022-12-14T21:16:59.262Z,51.10
2022-12-14T21:19:27.071Z,51.74
2022-12-14T21:21:54.974Z,51.47
2022-12-14T21:25:00.427Z,51.93
2022-12-14T21:27:15.872Z,51.94
2022-12-14T21:29:44.006Z,51.68
2022-12-14T21:32:11.946Z,51.37
2022-12-14T21:34:40.284Z,51.46
2022-12-14T21:37:08.162Z,51.45
2022-12-14T21:39:35.888Z,51.47
2022-12-14T21:42:13.080Z,51.98
2022-12-14T21:44:43.272Z,51.79
2022-12-14T21:47:12.290Z,51.51
2022-12-14T21:49:40.360Z,51.71
2022-12-14T21:52:08.094Z,52.22
2022-12-14T21:54:36.904Z,52.25
2022-12-14T21:57:21.926Z,52.55
2022-12-14T21:59:51.088Z,52.18
2022-12-14T22:02:20.297Z,52.00
2022-12-14T22:04:48.565Z,52.15
2022-12-14T22:07:16.415Z,52.63
2022-12-14T22:09:44.595Z,52.06
2022-12-14T22:12:17.833Z,52.51
2022-12-14T22:14:45.841Z,52.46
2022-12-14T22:17:15.098Z,52.71
2022-12-14T22:19:43.059Z,52.62
2022-12-14T22:22:13.939Z,52.64
2022-12-14T22:24:41.906Z,52.66
2022-12-14T22:27:10.127Z,52.58
2022-12-14T22:29:39.013Z,52.73
2022-12-14T22:32:07.130Z,52.62
2022-12-14T22:34:37.871Z,52.76
2022-12-14T22:37:06.453Z,52.34
2022-12-14T22:39:34.317Z,52.11
2022-12-14T22:42:02.127Z,52.29
2022-12-14T22:44:29.943Z,52.32
2022-12-14T22:46:57.722Z,52.51
2022-12-14T22:49:25.623Z,52.26
2022-12-14T22:51:54.734Z,52.36
2022-12-14T22:54:24.255Z,52.43
2022-12-14T22:56:53.572Z,52.11
2022-12-14T22:59:23.139Z,52.67
2022-12-14T23:01:50.902Z,52.96
2022-12-14T23:04:18.941Z,52.50
2022-12-14T23:06:48.322Z,52.19
2022-12-14T23:09:35.063Z,52.16
2022-12-14T23:12:22.089Z,52.34
2022-12-14T23:15:07.315Z,52.26
2022-12-14T23:17:52.855Z,52.07
2022-12-14T23:20:38.228Z,52.63
2022-12-14T23:23:24.428Z,52.33
2022-12-14T23:26:12.815Z,52.25
2022-12-14T23:28:57.963Z,52.67
2022-12-14T23:31:43.360Z,52.83
2022-12-14T23:34:28.427Z,52.33
2022-12-14T23:37:19.742Z,52.50
2022-12-14T23:40:05.736Z,52.85
2022-12-14T23:42:53.540Z,52.67
2022-12-14T23:45:38.864Z,53.17
2022-12-14T23:48:24.304Z,52.71
2022-12-14T23:51:09.656Z,52.83
2022-12-14T23:53:54.740Z,52.88
2022-12-14T23:56:40.297Z,52.90
2022-12-14T23:59:32.067Z,53.13
